Time;durP1;ratioP1;P1;durP2;ratioP2;P2;SDS_P1;SDS_P2;PMS_P1;PMS_P2;Temp;Humidity;BMP_temperature;BMP_pressure;BME280_temperature;BME280_humidity;BME280_pressure;Samples;Min_cycle;Max_cycle;Signal;HPM_P1;HPM_P2
2024/02/29 00:02:23;;;;;;;15.63;11.90;;;4.10;99.90;;;;;;5053031;28;20487;-64
2024/02/29 00:04:50;;;;;;;17.40;11.50;;;4.10;99.90;;;;;;5056407;28;20458;-64
2024/02/29 00:07:18;;;;;;;18.90;12.63;;;4.10;99.90;;;;;;5051476;28;20454;-64
2024/02/29 00:09:45;;;;;;;17.57;12.53;;;3.90;99.90;;;;;;5057906;28;20496;-64
2024/02/29 00:12:14;;;;;;;15.43;12.00;;;3.80;99.90;;;;;;5057013;28;20503;-64
2024/02/29 00:14:42;;;;;;;15.87;12.40;;;3.70;99.90;;;;;;5057357;28;20488;-65
2024/02/29 00:17:10;;;;;;;15.50;11.27;;;3.70;99.90;;;;;;5057366;28;20925;-64
2024/02/29 00:19:38;;;;;;;18.23;12.30;;;3.70;99.90;;;;;;5057696;28;20500;-64
2024/02/29 00:22:05;;;;;;;15.30;11.10;;;3.80;99.90;;;;;;5057594;28;20487;-64
2024/02/29 00:24:32;;;;;;;16.93;11.53;;;3.80;99.90;;;;;;5057774;28;20458;-64
2024/02/29 00:27:00;;;;;;;17.97;12.97;;;3.90;99.90;;;;;;5057291;28;20466;-64
2024/02/29 00:29:28;;;;;;;17.47;11.90;;;4.00;99.90;;;;;;5057692;28;20799;-64
2024/02/29 00:32:00;;;;;;;17.30;10.37;;;4.00;99.90;;;;;;5057277;28;20467;-64
2024/02/29 00:34:27;;;;;;;16.60;12.10;;;3.80;99.90;;;;;;5056692;28;20462;-64
2024/02/29 00:36:55;;;;;;;16.23;11.10;;;3.70;99.90;;;;;;5056872;28;20500;-64
2024/02/29 00:39:22;;;;;;;16.43;11.73;;;3.60;99.90;;;;;;5056566;28;20490;-64
2024/02/29 00:41:49;;;;;;;15.63;12.23;;;3.60;99.90;;;;;;5056749;28;20740;-64
2024/02/29 00:44:16;;;;;;;16.40;10.47;;;3.50;99.90;;;;;;5056684;28;20462;-64
2024/02/29 00:46:45;;;;;;;18.40;11.47;;;3.40;1.00;;;;;;5056399;28;20457;-64
2024/02/29 00:49:14;;;;;;;17.07;11.73;;;3.40;1.00;;;;;;5056708;28;20801;-64
2024/02/29 00:51:42;;;;;;;14.63;11.00;;;3.50;1.00;;;;;;5056930;28;20469;-64
2024/02/29 00:54:09;;;;;;;17.70;11.60;;;3.40;1.00;;;;;;5056178;28;20488;-64
2024/02/29 00:56:36;;;;;;;16.40;11.67;;;3.30;1.00;;;;;;5056656;28;20459;-64
2024/02/29 00:59:04;;;;;;;19.70;12.03;;;3.40;1.00;;;;;;5056443;28;20515;-64
2024/02/29 01:01:31;;;;;;;16.30;11.57;;;3.30;1.00;;;;;;5056855;28;20458;-64
2024/02/29 01:04:00;;;;;;;18.23;12.50;;;3.40;82.90;;;;;;5057148;28;20484;-64
2024/02/29 01:06:27;;;;;;;16.07;11.70;;;3.40;1.00;;;;;;5056754;28;20494;-64
2024/02/29 01:08:54;;;;;;;17.83;12.27;;;3.40;78.20;;;;;;5056430;28;20511;-64
2024/02/29 01:11:21;;;;;;;17.20;11.33;;;3.40;10.40;;;;;;5056834;28;20465;-64
2024/02/29 01:13:49;;;;;;;15.47;10.70;;;3.40;25.60;;;;;;5056970;28;20454;-64
2024/02/29 01:16:16;;;;;;;16.67;11.70;;;3.30;99.90;;;;;;5056513;28;20464;-64
2024/02/29 01:18:44;;;;;;;17.30;10.90;;;3.40;81.70;;;;;;5056109;28;20526;-64
2024/02/29 01:21:12;;;;;;;15.43;10.63;;;3.30;99.90;;;;;;5056424;28;20557;-64
2024/02/29 01:23:39;;;;;;;15.17;11.63;;;3.30;72.80;;;;;;5056315;28;20463;-65
2024/02/29 01:26:07;;;;;;;16.93;11.93;;;3.40;74.30;;;;;;5056150;28;20472;-64
2024/02/29 01:28:34;;;;;;;17.40;12.13;;;3.30;16.40;;;;;;5056152;28;20545;-64
2024/02/29 01:31:01;;;;;;;16.13;12.37;;;3.30;74.80;;;;;;5056941;28;20547;-64
2024/02/29 01:33:29;;;;;;;17.00;11.30;;;3.30;99.90;;;;;;5056756;28;20763;-64
2024/02/29 01:35:56;;;;;;;15.63;10.33;;;3.20;99.90;;;;;;5056707;28;20462;-64
2024/02/29 01:38:24;;;;;;;14.27;11.07;;;3.20;1.00;;;;;;5056131;28;20498;-64
2024/02/29 01:40:52;;;;;;;16.70;12.17;;;3.20;1.00;;;;;;5055784;28;20454;-64
2024/02/29 01:43:19;;;;;;;15.70;10.83;;;3.30;1.00;;;;;;5055958;28;20506;-65
2024/02/29 01:45:50;;;;;;;15.70;11.23;;;3.40;89.40;;;;;;5055000;28;20549;-64
2024/02/29 01:48:18;;;;;;;17.70;12.13;;;3.40;1.00;;;;;;5054248;28;20463;-64
2024/02/29 01:50:45;;;;;;;17.00;11.47;;;3.30;1.00;;;;;;5055394;27;20824;-64
2024/02/29 01:53:12;;;;;;;18.00;12.33;;;3.30;99.90;;;;;;5055225;28;20523;-65
2024/02/29 01:55:41;;;;;;;15.60;11.33;;;3.30;99.90;;;;;;5055302;28;20489;-64
2024/02/29 01:58:08;;;;;;;16.13;12.20;;;3.30;99.90;;;;;;5054401;28;20509;-64
2024/02/29 02:00:35;;;;;;;17.10;12.87;;;3.30;1.00;;;;;;5054411;28;20487;-64
2024/02/29 02:03:03;;;;;;;16.77;11.80;;;3.40;1.00;;;;;;5055081;28;20462;-64
2024/02/29 02:05:30;;;;;;;19.80;12.60;;;3.40;99.90;;;;;;5055320;28;20469;-64
2024/02/29 02:07:58;;;;;;;17.87;11.90;;;3.50;1.00;;;;;;5055571;28;20464;-65
2024/02/29 02:10:25;;;;;;;19.73;12.83;;;3.50;1.00;;;;;;5055425;28;20487;-64
2024/02/29 02:12:53;;;;;;;17.47;12.20;;;3.60;99.90;;;;;;5055209;28;20465;-64
2024/02/29 02:15:21;;;;;;;18.87;11.77;;;3.60;99.90;;;;;;5055784;28;20465;-64
2024/02/29 02:17:49;;;;;;;19.20;12.07;;;3.70;9.40;;;;;;5055759;28;20489;-65
2024/02/29 02:20:19;;;;;;;20.13;12.67;;;3.70;1.00;;;;;;5055038;28;20515;-64
2024/02/29 02:22:46;;;;;;;18.93;12.97;;;3.80;99.90;;;;;;5055288;28;20463;-65
2024/02/29 02:25:14;;;;;;;23.37;13.73;;;3.80;1.00;;;;;;5055028;28;20440;-64
2024/02/29 02:27:41;;;;;;;18.17;12.60;;;3.90;99.90;;;;;;5055033;28;20465;-65
2024/02/29 02:30:09;;;;;;;16.73;11.50;;;3.90;99.90;;;;;;5055081;28;20876;-65
2024/02/29 02:32:37;;;;;;;18.47;12.53;;;3.90;99.90;;;;;;5055007;28;20557;-64
2024/02/29 02:35:06;;;;;;;20.43;13.53;;;4.00;99.90;;;;;;5055490;28;20515;-64
2024/02/29 02:37:36;;;;;;;21.07;12.90;;;3.90;99.90;;;;;;5055295;28;20462;-65
2024/02/29 02:40:04;;;;;;;21.27;12.73;;;3.90;99.90;;;;;;5055373;28;20490;-64
2024/02/29 02:42:32;;;;;;;28.73;13.63;;;3.80;1.00;;;;;;5054856;28;20465;-64
2024/02/29 02:44:59;;;;;;;17.93;11.90;;;3.80;99.90;;;;;;5055145;28;20465;-64
2024/02/29 02:47:26;;;;;;;20.37;13.67;;;3.80;99.90;;;;;;5055196;28;20561;-65
2024/02/29 02:49:53;;;;;;;19.80;11.77;;;3.80;99.90;;;;;;5054997;28;20461;-65
2024/02/29 02:52:20;;;;;;;18.20;12.27;;;3.70;99.90;;;;;;5055108;28;20489;-64
2024/02/29 02:54:50;;;;;;;19.97;12.43;;;3.80;99.90;;;;;;5054391;28;20643;-65
2024/02/29 02:57:17;;;;;;;17.80;11.30;;;3.80;99.90;;;;;;5053568;28;20561;-65
2024/02/29 02:59:44;;;;;;;20.07;12.60;;;3.80;99.90;;;;;;5054562;28;20576;-65
2024/02/29 03:02:11;;;;;;;14.33;11.10;;;3.80;33.00;;;;;;5054316;28;20526;-64
2024/02/29 03:04:44;;;;;;;19.77;11.87;;;3.70;99.90;;;;;;5054551;28;20458;-64
2024/02/29 03:07:12;;;;;;;19.20;12.50;;;3.70;99.90;;;;;;5054666;28;20920;-65
2024/02/29 03:09:39;;;;;;;17.93;11.80;;;3.80;99.90;;;;;;5054914;28;20462;-64
2024/02/29 03:12:10;;;;;;;19.33;12.63;;;3.80;1.00;;;;;;5053956;28;20451;-64
2024/02/29 03:14:37;;;;;;;16.70;11.17;;;3.80;1.00;;;;;;5054499;28;20859;-65
2024/02/29 03:17:04;;;;;;;17.40;10.70;;;3.80;1.00;;;;;;5054645;28;20529;-65
2024/02/29 03:19:32;;;;;;;17.10;11.37;;;3.90;1.00;;;;;;5055385;28;20529;-64
2024/02/29 03:21:59;;;;;;;15.10;10.97;;;3.90;99.90;;;;;;5055081;28;20497;-64
2024/02/29 03:24:26;;;;;;;19.20;12.30;;;3.90;99.90;;;;;;5054738;28;20557;-64
2024/02/29 03:26:53;;;;;;;16.40;11.43;;;3.80;1.00;;;;;;5054552;28;20458;-64
2024/02/29 03:29:22;;;;;;;17.30;11.20;;;3.90;1.00;;;;;;5055023;28;20553;-65
2024/02/29 03:31:49;;;;;;;18.27;12.70;;;3.80;99.90;;;;;;5054877;28;20458;-65
2024/02/29 03:34:16;;;;;;;15.20;10.77;;;3.80;1.00;;;;;;5054373;28;20462;-65
2024/02/29 03:36:44;;;;;;;17.40;11.33;;;3.80;1.00;;;;;;5054272;28;20465;-65
2024/02/29 03:39:11;;;;;;;17.47;11.20;;;3.70;99.90;;;;;;5054503;28;20529;-65
2024/02/29 03:41:38;;;;;;;15.40;10.73;;;3.70;99.90;;;;;;5054797;28;20486;-65
2024/02/29 03:44:05;;;;;;;16.40;11.30;;;3.70;99.90;;;;;;5053839;28;20458;-65
2024/02/29 03:46:34;;;;;;;19.73;11.83;;;3.70;20.90;;;;;;5054283;28;20429;-65
2024/02/29 03:49:01;;;;;;;15.60;10.40;;;3.70;1.00;;;;;;5054341;28;20454;-64
2024/02/29 03:51:28;;;;;;;17.00;10.97;;;3.70;1.00;;;;;;5054415;28;20491;-64
2024/02/29 03:53:55;;;;;;;16.80;10.63;;;3.60;1.00;;;;;;5053827;28;20947;-64
2024/02/29 03:56:22;;;;;;;20.07;12.30;;;3.60;1.00;;;;;;5053249;28;20458;-64
2024/02/29 03:58:50;;;;;;;17.73;11.03;;;3.50;1.00;;;;;;5053102;28;20494;-64
2024/02/29 04:01:18;;;;;;;17.77;11.00;;;3.40;1.00;;;;;;5052664;28;20526;-64
2024/02/29 04:03:46;;;;;;;16.90;11.63;;;3.50;1.00;;;;;;5053501;28;20506;-64
2024/02/29 04:06:13;;;;;;;14.37;9.90;;;3.50;1.00;;;;;;5052999;28;20549;-64
2024/02/29 04:08:41;;;;;;;16.40;10.50;;;3.50;1.00;;;;;;5054778;28;20462;-65
2024/02/29 04:11:08;;;;;;;14.70;9.90;;;3.60;1.00;;;;;;5056425;28;20883;-64
2024/02/29 04:13:35;;;;;;;17.27;10.97;;;3.60;1.00;;;;;;5055380;28;20561;-64
2024/02/29 04:16:03;;;;;;;18.83;11.93;;;3.60;1.00;;;;;;5055026;28;20489;-64
2024/02/29 04:18:30;;;;;;;15.57;10.27;;;3.60;1.00;;;;;;5054306;28;20458;-64
2024/02/29 04:20:59;;;;;;;16.23;10.60;;;3.60;99.90;;;;;;5053385;28;20490;-64
2024/02/29 04:23:26;;;;;;;15.83;11.13;;;3.50;99.90;;;;;;5054005;28;20469;-63
2024/02/29 04:25:53;;;;;;;16.47;10.20;;;3.50;99.90;;;;;;5054207;28;20552;-64
2024/02/29 04:28:20;;;;;;;15.07;10.80;;;3.60;1.00;;;;;;5055054;28;20465;-64
2024/02/29 04:30:47;;;;;;;15.93;9.93;;;3.60;99.90;;;;;;5055498;28;20458;-64
2024/02/29 04:33:15;;;;;;;15.17;9.70;;;3.50;99.90;;;;;;5056127;28;20464;-65
2024/02/29 04:35:42;;;;;;;12.67;9.30;;;3.50;99.90;;;;;;5056875;28;20465;-65
2024/02/29 04:38:11;;;;;;;16.40;11.20;;;3.50;99.90;;;;;;5056795;28;20962;-64
2024/02/29 04:40:38;;;;;;;12.97;9.70;;;3.50;99.90;;;;;;5056740;28;20547;-64
2024/02/29 04:43:05;;;;;;;18.00;11.33;;;3.40;99.90;;;;;;5057555;28;20527;-65
2024/02/29 04:45:33;;;;;;;13.77;9.60;;;3.50;99.90;;;;;;5057069;28;20472;-64
2024/02/29 04:48:00;;;;;;;15.90;10.60;;;3.60;99.90;;;;;;5056640;28;20502;-64
2024/02/29 04:50:27;;;;;;;14.53;10.30;;;3.60;99.90;;;;;;5056494;28;20553;-64
2024/02/29 04:52:54;;;;;;;18.10;11.97;;;3.60;99.90;;;;;;5056552;28;20490;-65
2024/02/29 04:55:23;;;;;;;15.90;10.10;;;3.60;77.80;;;;;;5056855;28;20489;-64
2024/02/29 04:57:50;;;;;;;16.80;10.97;;;3.60;99.90;;;;;;5056451;28;20760;-65
2024/02/29 05:00:18;;;;;;;15.30;11.40;;;3.50;99.90;;;;;;5055489;28;20970;-65
2024/02/29 05:02:45;;;;;;;19.33;10.83;;;3.50;1.00;;;;;;5056134;28;20457;-65
2024/02/29 05:05:13;;;;;;;14.10;9.80;;;3.60;99.90;;;;;;5056469;28;20764;-65
2024/02/29 05:07:41;;;;;;;14.73;10.27;;;3.60;31.50;;;;;;5057021;28;20498;-64
2024/02/29 05:10:09;;;;;;;14.13;10.20;;;3.70;1.00;;;;;;5056551;28;20454;-64
2024/02/29 05:12:38;;;;;;;16.10;9.50;;;3.80;1.00;;;;;;5056475;27;20458;-64
2024/02/29 05:15:06;;;;;;;14.97;9.67;;;3.80;1.00;;;;;;5056935;28;20562;-65
2024/02/29 05:17:33;;;;;;;16.00;9.70;;;3.90;99.90;;;;;;5056704;27;20459;-64
2024/02/29 05:20:00;;;;;;;15.60;9.80;;;3.90;99.90;;;;;;5062727;28;20550;-67
2024/02/29 05:22:28;;;;;;;16.40;10.00;;;3.90;1.00;;;;;;5064242;28;20466;-67
2024/02/29 05:24:56;;;;;;;13.10;9.60;;;3.90;1.00;;;;;;5064112;28;20807;-67
2024/02/29 05:27:29;;;;;;;15.10;9.73;;;3.90;99.90;;;;;;5064694;27;20462;-67
2024/02/29 05:29:57;;;;;;;13.07;9.10;;;3.90;99.90;;;;;;5064314;28;20545;-67
2024/02/29 05:32:24;;;;;;;15.07;10.90;;;4.00;1.00;;;;;;5065604;28;20462;-67
2024/02/29 05:34:52;;;;;;;13.90;9.73;;;4.00;1.00;;;;;;5064643;27;20458;-67
2024/02/29 05:37:19;;;;;;;13.57;9.10;;;3.90;1.00;;;;;;5065815;28;20545;-67
2024/02/29 05:39:46;;;;;;;16.40;10.73;;;3.90;1.00;;;;;;5064644;28;20497;-67
2024/02/29 05:42:13;;;;;;;14.90;9.63;;;4.00;1.00;;;;;;5058339;28;20462;-66
2024/02/29 05:44:41;;;;;;;14.73;10.03;;;4.00;1.00;;;;;;5083102;28;20507;-67
2024/02/29 05:47:09;;;;;;;14.70;9.87;;;4.00;1.00;;;;;;5083866;28;20454;-67
2024/02/29 05:49:36;;;;;;;16.33;10.00;;;4.00;1.00;;;;;;5083115;28;20522;-67
2024/02/29 05:52:04;;;;;;;12.60;9.17;;;4.00;1.00;;;;;;5081937;28;20462;-67
2024/02/29 05:54:31;;;;;;;15.17;9.50;;;4.00;1.00;;;;;;5083708;28;20485;-67
2024/02/29 05:56:58;;;;;;;13.80;10.10;;;4.00;1.00;;;;;;5083004;27;20509;-67
2024/02/29 05:59:25;;;;;;;13.87;9.00;;;4.00;1.00;;;;;;5067348;28;20471;-67
2024/02/29 06:01:53;;;;;;;13.50;10.10;;;4.00;1.00;;;;;;5064641;28;20905;-67
2024/02/29 06:04:21;;;;;;;17.00;11.13;;;4.00;1.00;;;;;;5084192;28;20457;-67
2024/02/29 06:06:49;;;;;;;16.17;9.90;;;4.00;1.00;;;;;;5083155;28;20458;-68
2024/02/29 06:09:16;;;;;;;18.47;11.50;;;4.00;1.00;;;;;;5083047;28;20466;-66
2024/02/29 06:11:44;;;;;;;14.37;9.97;;;4.10;1.00;;;;;;5083604;28;20457;-67
2024/02/29 06:14:11;;;;;;;17.33;13.63;;;4.10;1.00;;;;;;5080312;28;20462;-67
2024/02/29 06:16:38;;;;;;;15.97;11.33;;;4.10;1.00;;;;;;5082576;28;20461;-67
2024/02/29 06:19:06;;;;;;;15.40;10.30;;;4.00;1.00;;;;;;5082257;28;20834;-67
2024/02/29 06:21:34;;;;;;;13.03;9.67;;;4.00;1.00;;;;;;5082527;28;20839;-67
2024/02/29 06:24:03;;;;;;;17.17;10.10;;;4.00;1.00;;;;;;5080675;28;20458;-68
2024/02/29 06:26:30;;;;;;;16.60;10.80;;;4.00;1.00;;;;;;5083501;28;20911;-67
2024/02/29 06:28:57;;;;;;;14.10;9.33;;;4.10;1.00;;;;;;5082080;28;20612;-68
2024/02/29 06:31:25;;;;;;;14.57;9.77;;;4.10;1.00;;;;;;5081416;28;20457;-66
2024/02/29 06:33:53;;;;;;;15.10;11.27;;;4.10;1.00;;;;;;5076260;27;20461;-68
2024/02/29 06:36:20;;;;;;;15.80;10.53;;;4.10;1.00;;;;;;5049578;28;20562;-66
2024/02/29 06:38:49;;;;;;;15.23;10.07;;;4.10;1.00;;;;;;5059667;28;20519;-66
2024/02/29 06:41:17;;;;;;;15.13;10.40;;;4.10;1.00;;;;;;5059456;28;20490;-67
2024/02/29 06:43:44;;;;;;;18.03;10.43;;;4.20;1.00;;;;;;5042132;28;20503;-67
2024/02/29 06:46:11;;;;;;;16.90;11.10;;;4.20;1.00;;;;;;5059623;28;20542;-67
2024/02/29 06:48:39;;;;;;;13.53;9.43;;;4.30;1.00;;;;;;5059393;28;20497;-67
2024/02/29 06:51:06;;;;;;;13.97;10.30;;;4.30;1.00;;;;;;5060365;28;20464;-67
2024/02/29 06:53:33;;;;;;;13.97;9.60;;;4.30;1.00;;;;;;5058935;28;20459;-67
2024/02/29 06:56:03;;;;;;;11.50;8.50;;;4.40;1.00;;;;;;5058570;28;20469;-67
2024/02/29 06:58:32;;;;;;;14.40;9.87;;;4.50;1.00;;;;;;5057089;28;20470;-67
2024/02/29 07:01:00;;;;;;;14.43;10.03;;;4.50;1.00;;;;;;5060257;28;20530;-69
2024/02/29 07:03:28;;;;;;;15.73;9.50;;;4.60;1.00;;;;;;5058784;28;20948;-67
2024/02/29 07:05:57;;;;;;;11.33;8.53;;;4.50;1.00;;;;;;5062214;28;20553;-67
2024/02/29 07:08:24;;;;;;;13.80;9.57;;;4.60;1.00;;;;;;5062259;28;20918;-67
2024/02/29 07:10:52;;;;;;;15.27;10.53;;;4.70;1.00;;;;;;5060468;28;20546;-67
2024/02/29 07:13:20;;;;;;;13.07;9.10;;;4.70;1.00;;;;;;5044366;28;20488;-67
2024/02/29 07:15:47;;;;;;;12.30;8.40;;;4.80;1.00;;;;;;5057688;28;20458;-67
2024/02/29 07:18:15;;;;;;;11.10;7.90;;;4.80;1.00;;;;;;5055837;28;20490;-68
2024/02/29 07:20:42;;;;;;;13.40;9.80;;;4.90;1.00;;;;;;5058810;28;20505;-67
2024/02/29 07:23:11;;;;;;;11.30;8.80;;;4.90;1.00;;;;;;5054741;28;20863;-68
2024/02/29 07:25:39;;;;;;;10.97;8.47;;;5.00;1.00;;;;;;5053206;28;20493;-71
2024/02/29 07:28:08;;;;;;;13.60;9.33;;;5.10;1.00;;;;;;5045225;28;20463;-70
2024/02/29 07:30:36;;;;;;;11.77;7.67;;;5.20;1.00;;;;;;5040085;28;20458;-69
2024/02/29 07:33:04;;;;;;;14.17;9.10;;;5.30;1.00;;;;;;5051917;28;20759;-70
2024/02/29 07:35:31;;;;;;;11.50;8.00;;;5.40;1.00;;;;;;5051920;28;20481;-70
2024/02/29 07:37:59;;;;;;;14.07;9.70;;;5.50;1.00;;;;;;5053541;28;20459;-68
2024/02/29 07:40:26;;;;;;;11.70;8.27;;;5.70;1.00;;;;;;5052831;28;20576;-68
2024/02/29 07:42:53;;;;;;;12.80;8.80;;;5.80;1.00;;;;;;5055157;28;20517;-69
2024/02/29 07:45:20;;;;;;;13.13;7.87;;;5.80;1.00;;;;;;5075971;28;20488;-68
2024/02/29 07:47:49;;;;;;;9.87;8.07;;;5.90;1.00;;;;;;5078490;28;20493;-68
2024/02/29 07:50:17;;;;;;;10.57;7.73;;;6.00;18.50;;;;;;5079060;28;20449;-69
2024/02/29 07:52:44;;;;;;;10.73;7.50;;;6.10;60.50;;;;;;5078110;28;20509;-69
2024/02/29 07:55:14;;;;;;;8.27;7.00;;;6.20;99.90;;;;;;5077375;27;20941;-69
2024/02/29 07:57:41;;;;;;;10.87;7.80;;;6.30;99.90;;;;;;5066821;28;20918;-68
2024/02/29 08:00:10;;;;;;;11.53;7.63;;;6.40;99.90;;;;;;5058832;28;20491;-68
2024/02/29 08:02:38;;;;;;;9.27;6.77;;;6.50;99.90;;;;;;5057815;28;20468;-69
2024/02/29 08:05:07;;;;;;;9.50;6.67;;;6.60;1.00;;;;;;5057878;28;20493;-68
2024/02/29 08:07:34;;;;;;;9.43;6.77;;;6.70;1.00;;;;;;5055742;28;20466;-67
2024/02/29 08:10:01;;;;;;;8.20;6.17;;;6.80;1.00;;;;;;5055004;28;20461;-68
2024/02/29 08:12:29;;;;;;;9.00;6.77;;;7.00;1.00;;;;;;5055324;28;20454;-69
2024/02/29 08:14:57;;;;;;;7.97;6.33;;;7.00;1.00;;;;;;5056909;28;20502;-68
2024/02/29 08:17:26;;;;;;;18.30;13.60;;;7.10;1.00;;;;;;5055705;28;20470;-69
2024/02/29 08:19:54;;;;;;;14.73;10.47;;;7.20;99.90;;;;;;5053202;28;20458;-70
2024/02/29 08:22:23;;;;;;;10.77;8.07;;;7.30;99.90;;;;;;5050486;28;20490;-69
2024/02/29 08:24:50;;;;;;;10.73;6.80;;;7.30;99.90;;;;;;5053619;28;20557;-69
2024/02/29 08:27:17;;;;;;;8.93;6.10;;;7.50;1.00;;;;;;5055772;28;20895;-69
2024/02/29 08:29:45;;;;;;;9.03;6.67;;;7.70;96.30;;;;;;5055578;28;20807;-69
2024/02/29 08:32:13;;;;;;;8.07;6.17;;;7.80;99.90;;;;;;5056162;28;20458;-69
2024/02/29 08:34:40;;;;;;;8.17;5.70;;;8.00;99.90;;;;;;5056638;28;20502;-69
2024/02/29 08:37:08;;;;;;;7.37;6.00;;;8.20;99.90;;;;;;5056829;28;20768;-68
2024/02/29 08:39:40;;;;;;;7.53;6.37;;;8.30;99.90;;;;;;5056348;28;20764;-69
2024/02/29 08:42:09;;;;;;;9.60;6.67;;;8.50;99.90;;;;;;5054683;28;20533;-69
2024/02/29 08:44:36;;;;;;;10.13;6.73;;;8.60;99.90;;;;;;5055930;28;20458;-67
2024/02/29 08:47:06;;;;;;;10.27;6.07;;;8.80;99.90;;;;;;5056123;28;20459;-68
2024/02/29 08:49:34;;;;;;;7.73;5.60;;;8.90;99.90;;;;;;5055887;28;20463;-68
2024/02/29 08:52:01;;;;;;;8.10;6.37;;;9.00;1.00;;;;;;5055090;28;20458;-69
2024/02/29 08:54:28;;;;;;;8.63;6.17;;;9.00;99.90;;;;;;5055047;28;20510;-69
2024/02/29 08:56:57;;;;;;;8.20;7.00;;;9.10;99.90;;;;;;5056552;28;20565;-69
2024/02/29 08:59:24;;;;;;;8.03;5.73;;;9.20;99.90;;;;;;5056715;28;20459;-70
2024/02/29 09:01:52;;;;;;;8.23;6.33;;;9.20;99.90;;;;;;5056316;28;20494;-69
2024/02/29 09:04:20;;;;;;;8.60;5.90;;;9.30;1.00;;;;;;5055854;28;20511;-69
2024/02/29 09:06:47;;;;;;;7.10;6.23;;;9.30;99.90;;;;;;5056547;28;20927;-69
2024/02/29 09:09:16;;;;;;;8.27;5.60;;;9.30;83.30;;;;;;5056658;28;20463;-70
2024/02/29 09:11:43;;;;;;;8.33;5.80;;;9.20;99.90;;;;;;5056267;28;20883;-63
2024/02/29 09:14:12;;;;;;;8.27;6.50;;;9.20;99.90;;;;;;5057134;28;20477;-69
2024/02/29 09:16:40;;;;;;;8.77;6.13;;;9.00;99.90;;;;;;5057127;28;20883;-68
2024/02/29 09:19:07;;;;;;;8.10;6.30;;;9.00;99.90;;;;;;5056096;28;20515;-67
2024/02/29 09:21:35;;;;;;;8.20;6.10;;;9.10;15.40;;;;;;5056060;28;20578;-67
2024/02/29 09:24:03;;;;;;;9.67;6.40;;;9.40;99.90;;;;;;5055695;28;20459;-67
2024/02/29 09:26:31;;;;;;;8.80;5.70;;;9.50;99.90;;;;;;5055652;28;20557;-68
2024/02/29 09:28:59;;;;;;;7.10;5.77;;;9.70;99.90;;;;;;5055832;28;20480;-67
2024/02/29 09:31:28;;;;;;;8.73;6.57;;;10.00;99.90;;;;;;5055639;28;20783;-69
2024/02/29 09:33:55;;;;;;;7.40;6.10;;;10.30;99.90;;;;;;5054150;28;20602;-67
2024/02/29 09:36:22;;;;;;;10.20;6.20;;;10.50;99.90;;;;;;5055069;28;20462;-68
2024/02/29 09:38:50;;;;;;;11.30;5.77;;;10.60;99.90;;;;;;5054438;28;20458;-69
2024/02/29 09:41:17;;;;;;;7.90;5.50;;;10.70;99.90;;;;;;5055685;28;20486;-69
2024/02/29 09:43:46;;;;;;;7.50;5.70;;;10.60;99.90;;;;;;5055878;28;20557;-67
2024/02/29 09:46:14;;;;;;;8.63;5.80;;;10.50;99.90;;;;;;5055446;28;20494;-67
2024/02/29 09:48:43;;;;;;;6.67;5.60;;;10.50;1.00;;;;;;5055274;28;20513;-70
2024/02/29 09:51:16;;;;;;;8.50;6.53;;;10.30;99.90;;;;;;5056343;28;20561;-69
2024/02/29 09:53:43;;;;;;;8.40;5.90;;;10.10;1.00;;;;;;5056594;28;20489;-70
2024/02/29 09:56:14;;;;;;;7.60;6.40;;;10.00;1.00;;;;;;5057232;28;20462;-69
2024/02/29 09:58:42;;;;;;;7.67;5.97;;;9.80;1.00;;;;;;5055384;28;20558;-70
2024/02/29 10:01:10;;;;;;;6.73;5.37;;;9.80;1.00;;;;;;5055892;28;20514;-71
2024/02/29 10:03:38;;;;;;;8.10;6.50;;;9.70;1.00;;;;;;5055686;28;20458;-68
2024/02/29 10:06:07;;;;;;;7.80;5.87;;;9.70;1.00;;;;;;5056984;28;20459;-68
2024/02/29 10:08:35;;;;;;;9.80;7.10;;;9.80;1.00;;;;;;5054823;28;20469;-69
2024/02/29 10:11:03;;;;;;;11.73;8.87;;;10.00;1.00;;;;;;5056282;28;20573;-68
2024/02/29 10:13:38;;;;;;;8.20;6.53;;;10.10;1.00;;;;;;5056337;28;20942;-70
2024/02/29 10:16:07;;;;;;;10.93;7.57;;;10.10;1.00;;;;;;5056082;28;20468;-69
2024/02/29 10:18:36;;;;;;;8.33;6.70;;;10.10;1.00;;;;;;5054621;28;20497;-69
2024/02/29 10:21:11;;;;;;;13.27;8.80;;;10.20;1.00;;;;;;5054849;28;20494;-70
2024/02/29 10:23:38;;;;;;;10.67;7.17;;;10.20;1.00;;;;;;5054585;28;20458;-69
2024/02/29 10:26:06;;;;;;;9.00;6.00;;;10.30;1.00;;;;;;5054501;28;20971;-70
2024/02/29 10:28:34;;;;;;;7.50;6.43;;;10.50;1.00;;;;;;5055168;28;20815;-69
2024/02/29 10:31:01;;;;;;;10.17;7.30;;;10.50;1.00;;;;;;5055010;28;20458;-68
2024/02/29 10:33:29;;;;;;;9.47;6.67;;;10.60;1.00;;;;;;5054654;28;20525;-69
2024/02/29 10:35:57;;;;;;;10.27;7.47;;;10.60;1.00;;;;;;5054931;28;20437;-70
2024/02/29 10:38:26;;;;;;;10.37;8.10;;;10.60;1.00;;;;;;5053665;28;20583;-69
2024/02/29 10:41:01;;;;;;;10.43;7.50;;;10.60;1.00;;;;;;5054153;28;20813;-69
2024/02/29 10:43:31;;;;;;;9.80;6.97;;;10.80;1.00;;;;;;5052641;28;20518;-69
2024/02/29 10:46:04;;;;;;;6.70;5.43;;;10.80;1.00;;;;;;5052651;28;20458;-69
2024/02/29 10:48:43;;;;;;;8.53;7.10;;;10.80;1.00;;;;;;5053975;28;20895;-71
2024/02/29 10:51:17;;;;;;;8.47;6.83;;;10.80;1.00;;;;;;5053339;28;20461;-70
2024/02/29 10:53:54;;;;;;;10.50;7.00;;;10.90;1.00;;;;;;5052227;28;20785;-68
2024/02/29 10:56:23;;;;;;;10.03;8.00;;;11.10;1.00;;;;;;5051815;28;20458;-69
2024/02/29 10:59:02;;;;;;;7.43;6.63;;;11.30;1.00;;;;;;5052366;28;20824;-69
2024/02/29 11:01:31;;;;;;;7.20;5.97;;;11.40;1.00;;;;;;5052719;28;20969;-68
2024/02/29 11:03:58;;;;;;;11.03;8.57;;;11.30;1.00;;;;;;5052154;28;20899;-69
2024/02/29 11:06:28;;;;;;;6.77;6.00;;;11.10;1.00;;;;;;5053687;28;20894;-69
2024/02/29 11:08:59;;;;;;;5.83;5.17;;;11.10;1.00;;;;;;5053142;28;20504;-68
2024/02/29 11:11:27;;;;;;;8.70;6.47;;;11.10;1.00;;;;;;5053654;28;20453;-68
2024/02/29 11:14:07;;;;;;;7.50;6.53;;;11.20;1.00;;;;;;5054201;28;20557;-70
2024/02/29 11:16:38;;;;;;;6.77;5.87;;;11.10;1.00;;;;;;5053808;28;20548;-70
2024/02/29 11:19:06;;;;;;;9.03;7.00;;;11.20;1.00;;;;;;5056179;28;20933;-69
2024/02/29 11:21:37;;;;;;;9.00;7.50;;;11.40;1.00;;;;;;5057306;28;20490;-69
2024/02/29 11:24:07;;;;;;;7.07;5.57;;;11.40;1.00;;;;;;5055909;28;20481;-68
2024/02/29 11:26:36;;;;;;;8.50;6.07;;;11.50;1.00;;;;;;5056709;28;20458;-70
2024/02/29 11:29:12;;;;;;;7.97;6.20;;;11.40;1.00;;;;;;5057391;28;20472;-69
2024/02/29 11:31:46;;;;;;;7.37;5.70;;;11.50;1.00;;;;;;5057221;28;20488;-69
2024/02/29 11:34:14;;;;;;;6.37;5.23;;;11.60;1.00;;;;;;5056755;28;20473;-71
2024/02/29 11:36:41;;;;;;;11.00;5.77;;;11.70;1.00;;;;;;5056854;28;20465;-70
2024/02/29 11:39:11;;;;;;;6.33;5.03;;;11.60;1.00;;;;;;5057389;28;20511;-68
2024/02/29 11:41:38;;;;;;;7.70;6.10;;;11.70;1.00;;;;;;5057390;28;20494;-71
2024/02/29 11:44:06;;;;;;;6.80;5.27;;;11.70;1.00;;;;;;5057264;28;20921;-70
2024/02/29 11:46:34;;;;;;;6.10;5.20;;;11.90;1.00;;;;;;5056767;28;20534;-71
2024/02/29 11:49:02;;;;;;;7.93;5.70;;;11.80;1.00;;;;;;5057464;28;20462;-71
2024/02/29 11:51:30;;;;;;;6.27;5.33;;;11.90;1.00;;;;;;5057277;28;20458;-70
2024/02/29 11:53:58;;;;;;;5.97;4.57;;;12.00;1.00;;;;;;5056944;28;20490;-68
2024/02/29 11:56:27;;;;;;;5.47;4.40;;;12.00;1.00;;;;;;5056964;28;20457;-70
2024/02/29 11:58:55;;;;;;;6.33;4.60;;;11.80;1.00;;;;;;5056831;28;20468;-69
2024/02/29 12:01:23;;;;;;;6.30;4.67;;;11.80;1.00;;;;;;5056853;28;20942;-71
2024/02/29 12:03:52;;;;;;;6.10;5.03;;;11.70;1.00;;;;;;5056927;28;20468;-71
2024/02/29 12:06:20;;;;;;;5.10;4.60;;;11.80;1.00;;;;;;5056676;28;20462;-71
2024/02/29 12:08:47;;;;;;;5.97;4.20;;;11.90;1.00;;;;;;5056390;28;20467;-70
2024/02/29 12:11:16;;;;;;;5.13;4.43;;;11.90;1.00;;;;;;5056595;28;20458;-70
2024/02/29 12:13:45;;;;;;;5.77;4.67;;;11.90;1.00;;;;;;5055952;28;20469;-70
2024/02/29 12:16:13;;;;;;;5.60;5.00;;;11.80;1.00;;;;;;5056241;28;20481;-70
2024/02/29 12:18:40;;;;;;;5.40;4.87;;;11.80;1.00;;;;;;5056608;28;20458;-71
2024/02/29 12:21:09;;;;;;;5.30;4.60;;;11.70;1.00;;;;;;5056724;28;20454;-70
2024/02/29 12:23:39;;;;;;;4.87;4.30;;;11.60;1.00;;;;;;5056117;28;20469;-69
2024/02/29 12:26:11;;;;;;;8.23;4.80;;;11.60;1.00;;;;;;5054429;28;20462;-68
2024/02/29 12:28:39;;;;;;;8.03;5.10;;;11.50;1.00;;;;;;5054850;28;20472;-67
2024/02/29 12:31:09;;;;;;;6.60;5.27;;;11.30;1.00;;;;;;5055348;28;20468;-68
2024/02/29 12:33:39;;;;;;;5.40;4.63;;;11.20;1.00;;;;;;5045666;28;20463;-69
2024/02/29 12:36:07;;;;;;;5.20;4.43;;;11.20;1.00;;;;;;5035381;28;20459;-68
2024/02/29 12:38:36;;;;;;;4.83;4.33;;;11.20;1.00;;;;;;5035830;28;20459;-69
2024/02/29 12:41:05;;;;;;;4.80;4.20;;;11.10;1.00;;;;;;5034616;28;20488;-68
2024/02/29 12:43:36;;;;;;;4.97;4.10;;;11.00;1.00;;;;;;5035783;28;20501;-70
2024/02/29 12:46:04;;;;;;;4.60;4.20;;;11.00;1.00;;;;;;5035642;28;20920;-69
2024/02/29 12:48:33;;;;;;;5.60;4.17;;;11.00;1.00;;;;;;5034405;28;20463;-69
2024/02/29 12:51:01;;;;;;;5.60;4.47;;;11.00;1.00;;;;;;5034622;28;20471;-69
2024/02/29 12:53:29;;;;;;;5.70;4.53;;;11.10;99.90;;;;;;5034146;28;20550;-69